createdAt,value
2022-10-17T00:01:27.831Z,26.40
2022-10-17T00:04:00.499Z,26.48
2022-10-17T00:06:33.068Z,24.92
2022-10-17T00:09:05.902Z,25.63
2022-10-17T00:11:38.374Z,25.50
2022-10-17T00:14:10.891Z,26.02
2022-10-17T00:16:43.487Z,23.25
2022-10-17T00:19:15.990Z,25.77
2022-10-17T00:21:50.546Z,23.83
2022-10-17T00:24:23.067Z,29.60
2022-10-17T00:26:55.603Z,26.23
2022-10-17T00:29:28.102Z,23.08
2022-10-17T00:32:00.621Z,27.65
2022-10-17T00:34:33.308Z,26.55
2022-10-17T00:37:05.959Z,27.90
2022-10-17T00:39:39.010Z,25.45
2022-10-17T00:42:13.695Z,23.30
2022-10-17T00:44:48.060Z,27.83
2022-10-17T00:47:22.230Z,26.08
2022-10-17T00:49:55.401Z,26.33
2022-10-17T00:52:30.200Z,25.73
2022-10-17T00:57:45.659Z,25.85
2022-10-17T01:00:20.609Z,27.50
2022-10-17T01:02:53.346Z,28.30
2022-10-17T01:05:27.463Z,28.27
2022-10-17T01:08:01.451Z,29.13
2022-10-17T01:10:52.897Z,29.25
2022-10-17T01:13:42.444Z,29.45
2022-10-17T01:16:23.878Z,32.25
2022-10-17T01:19:19.079Z,32.67
2022-10-17T01:22:00.746Z,36.05
2022-10-17T01:24:58.478Z,26.15
2022-10-17T01:27:43.554Z,29.35
2022-10-17T01:30:32.903Z,28.55
2022-10-17T01:33:09.791Z,29.98
2022-10-17T01:35:54.216Z,27.85
2022-10-17T01:38:37.150Z,25.83
2022-10-17T01:41:18.910Z,30.88
2022-10-17T01:43:59.214Z,28.50
2022-10-17T01:46:39.302Z,26.55
2022-10-17T01:49:15.109Z,26.45
2022-10-17T01:51:53.218Z,24.83
2022-10-17T01:54:32.978Z,27.92
2022-10-17T01:57:09.049Z,25.15
2022-10-17T01:59:46.558Z,23.95
2022-10-17T02:02:21.380Z,26.52
2022-10-17T02:04:57.488Z,24.80
2022-10-17T02:07:30.825Z,27.10
2022-10-17T02:10:14.519Z,27.52
2022-10-17T02:12:55.815Z,26.90
2022-10-17T02:15:46.243Z,24.42
2022-10-17T02:18:35.690Z,23.70
2022-10-17T02:21:18.695Z,26.20
2022-10-17T02:24:05.116Z,24.55
2022-10-17T02:26:50.748Z,25.50
2022-10-17T02:29:28.696Z,28.80
2022-10-17T02:32:12.127Z,25.65
2022-10-17T02:34:49.724Z,25.55
2022-10-17T02:37:28.096Z,27.85
2022-10-17T02:40:02.313Z,28.35
2022-10-17T02:42:36.321Z,26.20
2022-10-17T02:45:10.416Z,26.30
2022-10-17T02:47:58.412Z,27.52
2022-10-17T02:50:43.707Z,25.15
2022-10-17T02:53:25.937Z,25.05
2022-10-17T02:56:11.138Z,24.13
2022-10-17T02:58:46.694Z,20.38
2022-10-17T03:01:20.827Z,22.63
2022-10-17T03:04:06.494Z,20.30
2022-10-17T03:06:40.394Z,22.00
2022-10-17T03:09:13.714Z,17.80
2022-10-17T03:11:47.075Z,18.73
2022-10-17T03:14:19.713Z,20.88
2022-10-17T03:16:52.457Z,17.73
2022-10-17T03:19:25.484Z,17.15
2022-10-17T03:21:58.868Z,20.15
2022-10-17T03:24:31.432Z,19.90
2022-10-17T03:27:04.430Z,19.00
2022-10-17T03:29:37.050Z,23.92
2022-10-17T03:32:11.703Z,26.13
2022-10-17T03:34:45.298Z,25.40
2022-10-17T03:37:18.448Z,27.00
2022-10-17T03:39:51.107Z,24.25
2022-10-17T03:42:24.253Z,26.35
2022-10-17T03:44:56.859Z,29.88
2022-10-17T03:47:30.260Z,25.00
2022-10-17T03:50:04.434Z,27.08
2022-10-17T03:52:40.571Z,28.50
2022-10-17T03:55:14.766Z,30.98
2022-10-17T03:57:47.612Z,29.15
2022-10-17T04:00:22.433Z,28.65
2022-10-17T04:03:01.255Z,29.35
2022-10-17T04:05:33.921Z,33.60
2022-10-17T04:08:06.364Z,33.42
2022-10-17T04:11:01.635Z,35.75
2022-10-17T04:13:35.110Z,34.65
2022-10-17T04:16:11.854Z,31.48
2022-10-17T04:18:56.158Z,35.45
2022-10-17T04:21:31.264Z,40.97
2022-10-17T04:24:11.979Z,36.70
2022-10-17T04:26:51.486Z,38.42
2022-10-17T04:29:26.606Z,34.45
2022-10-17T04:32:06.504Z,34.70
2022-10-17T04:34:50.345Z,28.50
2022-10-17T04:37:25.104Z,28.45
2022-10-17T04:42:36.617Z,22.45
2022-10-17T04:45:10.204Z,21.35
2022-10-17T04:47:43.324Z,19.90
2022-10-17T04:50:16.244Z,18.77
2022-10-17T04:53:08.759Z,18.88
2022-10-17T04:55:41.570Z,19.23
2022-10-17T04:58:14.666Z,18.73
2022-10-17T05:00:47.297Z,18.52
2022-10-17T05:03:27.284Z,14.98
2022-10-17T05:06:06.831Z,17.52
2022-10-17T05:08:40.061Z,19.00
2022-10-17T05:11:32.536Z,16.13
2022-10-17T05:14:05.239Z,18.48
2022-10-17T05:16:38.952Z,23.10
2022-10-17T05:19:12.274Z,18.27
2022-10-17T05:21:50.311Z,20.67
2022-10-17T05:24:22.968Z,17.35
2022-10-17T05:26:55.439Z,18.83
2022-10-17T05:29:28.178Z,18.40
2022-10-17T05:32:10.067Z,18.85
2022-10-17T05:34:43.778Z,21.10
2022-10-17T05:37:16.912Z,20.27
2022-10-17T05:39:54.605Z,21.75
2022-10-17T05:42:27.903Z,20.73
2022-10-17T05:45:02.416Z,22.73
2022-10-17T05:47:37.414Z,19.88
2022-10-17T05:50:10.756Z,22.60
2022-10-17T05:53:03.242Z,21.10
2022-10-17T05:55:37.475Z,19.92
2022-10-17T05:58:17.691Z,21.20
2022-10-17T06:01:07.072Z,21.70
2022-10-17T06:03:43.022Z,22.10
2022-10-17T06:06:16.505Z,24.00
2022-10-17T06:08:50.807Z,23.70
2022-10-17T06:11:29.790Z,24.38
2022-10-17T06:14:02.922Z,22.50
2022-10-17T06:16:36.094Z,21.02
2022-10-17T06:19:08.761Z,23.10
2022-10-17T06:21:41.323Z,21.55
2022-10-17T06:24:20.138Z,24.77
2022-10-17T06:26:53.018Z,20.65
2022-10-17T06:29:27.492Z,20.67
2022-10-17T06:32:00.586Z,20.35
2022-10-17T06:34:33.604Z,19.27
2022-10-17T06:37:06.238Z,19.50
2022-10-17T06:39:45.273Z,22.10
2022-10-17T06:42:21.638Z,22.35
2022-10-17T06:45:10.327Z,23.27
2022-10-17T06:47:50.927Z,22.90
2022-10-17T06:50:39.326Z,23.23
2022-10-17T06:53:18.833Z,21.95
2022-10-17T06:56:01.816Z,23.55
2022-10-17T06:58:51.581Z,22.02
2022-10-17T07:01:32.615Z,25.55
2022-10-17T07:04:06.628Z,23.92
2022-10-17T07:06:40.051Z,21.50
2022-10-17T07:09:23.248Z,23.88
2022-10-17T07:11:56.897Z,25.97
2022-10-17T07:14:32.517Z,24.42
2022-10-17T07:17:05.962Z,23.75
2022-10-17T07:19:38.876Z,25.88
2022-10-17T07:22:14.077Z,23.73
2022-10-17T07:27:39.736Z,20.00
2022-10-17T07:30:12.876Z,20.25
2022-10-17T07:32:54.694Z,17.95
2022-10-17T07:35:27.848Z,21.52
2022-10-17T07:38:00.785Z,19.10
2022-10-17T07:40:33.579Z,21.30
2022-10-17T07:43:07.202Z,17.85
2022-10-17T07:45:42.213Z,16.40
2022-10-17T07:50:49.709Z,21.10
2022-10-17T07:53:22.297Z,20.50
2022-10-17T07:55:55.554Z,20.52
2022-10-17T07:58:31.545Z,22.23
2022-10-17T08:01:08.366Z,27.38
2022-10-17T08:03:46.347Z,20.98
2022-10-17T08:06:19.140Z,27.45
2022-10-17T08:08:52.189Z,28.75
2022-10-17T08:11:25.865Z,26.90
2022-10-17T08:13:58.468Z,24.35
2022-10-17T08:16:31.227Z,26.52
2022-10-17T08:19:04.903Z,27.83
2022-10-17T08:21:38.313Z,32.67
2022-10-17T08:24:10.912Z,24.75
2022-10-17T08:26:45.325Z,29.25
2022-10-17T08:29:20.077Z,23.10
2022-10-17T08:31:56.280Z,29.85
2022-10-17T08:34:33.740Z,23.52
2022-10-17T08:37:06.414Z,30.50
2022-10-17T08:39:39.092Z,22.30
2022-10-17T08:42:30.060Z,30.70
2022-10-17T08:45:20.052Z,28.15
2022-10-17T08:47:59.836Z,29.25
2022-10-17T08:50:41.270Z,30.67
2022-10-17T08:53:29.782Z,25.33
2022-10-17T08:56:19.479Z,32.72
2022-10-17T08:58:53.228Z,27.35
2022-10-17T09:01:47.112Z,26.05
2022-10-17T09:04:20.357Z,25.95
2022-10-17T09:07:06.767Z,30.65
2022-10-17T09:10:01.885Z,24.55
2022-10-17T09:12:52.124Z,22.73
2022-10-17T09:15:48.673Z,24.80
2022-10-17T09:18:40.428Z,26.15
2022-10-17T09:21:43.446Z,27.65
2022-10-17T09:24:26.442Z,24.33
2022-10-17T09:26:59.592Z,24.63
2022-10-17T09:29:37.944Z,20.02
2022-10-17T09:32:18.767Z,22.52
2022-10-17T09:34:54.134Z,22.65
2022-10-17T09:37:33.108Z,23.02
2022-10-17T09:40:09.507Z,24.17
2022-10-17T09:42:42.273Z,25.55
2022-10-17T09:45:20.076Z,30.63
2022-10-17T09:48:06.197Z,27.85
2022-10-17T09:50:40.614Z,32.40
2022-10-17T09:53:15.579Z,35.03
2022-10-17T09:55:55.824Z,31.70
2022-10-17T09:58:46.613Z,37.10
2022-10-17T10:01:25.059Z,47.55
2022-10-17T10:04:14.802Z,45.13
2022-10-17T10:07:05.793Z,50.03
2022-10-17T10:09:40.427Z,46.63
2022-10-17T10:12:32.477Z,51.50
2022-10-17T10:15:32.618Z,47.40
2022-10-17T10:18:25.692Z,54.17
2022-10-17T10:21:17.527Z,51.00
2022-10-17T10:24:11.370Z,47.35
2022-10-17T10:26:51.144Z,45.30
2022-10-17T10:29:38.401Z,59.97
2022-10-17T10:32:20.234Z,55.40
2022-10-17T10:34:59.712Z,49.67
2022-10-17T10:37:43.885Z,58.08
2022-10-17T10:40:21.622Z,55.80
2022-10-17T10:43:03.978Z,53.45
2022-10-17T10:45:54.360Z,57.63
2022-10-17T10:48:34.683Z,59.35
2022-10-17T10:51:18.556Z,59.28
2022-10-17T10:54:08.943Z,64.18
2022-10-17T10:56:49.943Z,55.50
2022-10-17T10:59:43.706Z,50.63
2022-10-17T11:02:33.236Z,58.83
2022-10-17T11:05:06.566Z,54.35
2022-10-17T11:07:58.682Z,50.88
2022-10-17T11:10:39.594Z,57.75
2022-10-17T11:13:18.796Z,58.97
2022-10-17T11:15:59.788Z,54.60
2022-10-17T11:18:51.709Z,53.42
2022-10-17T11:21:53.218Z,56.92
2022-10-17T11:24:33.737Z,54.28
2022-10-17T11:27:10.256Z,60.38
2022-10-17T11:29:46.291Z,52.83
2022-10-17T11:32:25.909Z,53.03
2022-10-17T11:35:07.079Z,56.08
2022-10-17T11:37:49.051Z,55.08
2022-10-17T11:40:30.347Z,55.67
2022-10-17T11:43:13.812Z,52.35
2022-10-17T11:45:52.893Z,50.42
2022-10-17T11:48:40.054Z,49.78
2022-10-17T11:54:18.956Z,54.73
2022-10-17T11:57:14.703Z,53.78
2022-10-17T12:00:07.773Z,53.33
2022-10-17T12:03:15.178Z,55.15
2022-10-17T12:05:57.276Z,50.47
2022-10-17T12:08:38.596Z,55.83
2022-10-17T12:11:35.413Z,61.38
2022-10-17T12:14:27.653Z,51.38
2022-10-17T12:17:02.285Z,56.17
2022-10-17T12:19:38.454Z,54.97
2022-10-17T12:22:22.439Z,54.63
2022-10-17T12:25:02.181Z,52.60
2022-10-17T12:27:39.873Z,54.08
2022-10-17T12:30:15.015Z,48.83
2022-10-17T12:33:07.979Z,50.03
2022-10-17T12:35:42.913Z,47.20
2022-10-17T12:38:20.313Z,53.47
2022-10-17T12:40:56.697Z,50.40
2022-10-17T12:43:30.250Z,48.03
2022-10-17T12:46:05.321Z,51.75
2022-10-17T12:48:40.793Z,47.30
2022-10-17T12:51:35.731Z,49.55
2022-10-17T12:54:14.213Z,43.78
2022-10-17T12:56:50.130Z,43.65
2022-10-17T12:59:28.121Z,50.55
2022-10-17T13:02:03.766Z,46.45
2022-10-17T13:04:37.926Z,43.58
2022-10-17T13:07:22.910Z,48.17
2022-10-17T13:09:57.000Z,46.40
2022-10-17T13:12:30.669Z,43.83
2022-10-17T13:17:43.792Z,37.08
2022-10-17T13:20:31.325Z,35.78
2022-10-17T13:23:05.563Z,36.10
2022-10-17T13:25:39.729Z,41.00
2022-10-17T13:28:14.095Z,39.38
2022-10-17T13:30:49.649Z,40.03
2022-10-17T13:33:42.599Z,36.70
2022-10-17T13:36:19.181Z,40.75
2022-10-17T13:38:53.485Z,39.17
2022-10-17T13:41:35.825Z,39.95
2022-10-17T13:44:18.417Z,35.30
2022-10-17T13:46:52.089Z,31.30
2022-10-17T13:49:42.152Z,30.67
2022-10-17T13:52:19.894Z,34.05
2022-10-17T13:54:54.079Z,34.20
2022-10-17T13:57:31.025Z,33.38
2022-10-17T14:00:13.421Z,31.60
2022-10-17T14:02:47.061Z,39.05
2022-10-17T14:05:23.653Z,32.15
2022-10-17T14:08:20.266Z,40.22
2022-10-17T14:13:30.452Z,38.55
2022-10-17T14:16:04.354Z,35.65
2022-10-17T14:18:38.226Z,35.28
2022-10-17T14:24:21.118Z,34.80
2022-10-17T14:26:59.277Z,34.30
2022-10-17T14:29:53.173Z,35.58
2022-10-17T14:32:26.315Z,35.92
2022-10-17T14:35:18.155Z,35.55
2022-10-17T14:37:58.799Z,35.85
2022-10-17T14:40:34.093Z,33.80
2022-10-17T14:45:40.759Z,32.03
2022-10-17T14:48:17.773Z,30.38
2022-10-17T14:51:10.544Z,33.50
2022-10-17T14:54:04.916Z,35.13
2022-10-17T14:56:42.402Z,36.13
2022-10-17T14:59:30.169Z,32.33
2022-10-17T15:02:12.417Z,31.58
2022-10-17T15:04:45.305Z,32.30
2022-10-17T15:07:19.533Z,32.63
2022-10-17T15:09:54.289Z,32.38
2022-10-17T15:12:27.448Z,28.75
2022-10-17T15:15:00.626Z,29.23
2022-10-17T15:17:35.014Z,31.60
2022-10-17T15:20:18.015Z,32.30
2022-10-17T15:22:54.857Z,33.23
2022-10-17T15:25:29.350Z,33.97
2022-10-17T15:28:02.010Z,31.83
2022-10-17T15:30:36.889Z,29.73
2022-10-17T15:33:09.839Z,37.70
2022-10-17T15:35:44.003Z,31.77
2022-10-17T15:38:19.166Z,35.72
2022-10-17T15:40:52.691Z,33.65
2022-10-17T15:43:26.063Z,35.30
2022-10-17T15:46:01.403Z,32.35
2022-10-17T15:51:07.054Z,34.67
2022-10-17T15:53:40.080Z,34.15
2022-10-17T15:56:25.534Z,38.10
2022-10-17T15:58:58.866Z,38.58
2022-10-17T16:01:33.840Z,31.20
2022-10-17T16:04:06.834Z,30.13
2022-10-17T16:06:39.945Z,30.38
2022-10-17T16:09:13.160Z,23.42
2022-10-17T16:11:48.013Z,50.88
2022-10-17T16:14:48.774Z,92.28
2022-10-17T16:17:22.135Z,25.20
2022-10-17T16:19:55.672Z,23.33
2022-10-17T16:22:33.290Z,22.85
2022-10-17T16:25:10.641Z,25.08
2022-10-17T16:27:43.988Z,24.88
2022-10-17T16:30:19.645Z,22.30
2022-10-17T16:33:17.831Z,25.48
2022-10-17T16:35:50.560Z,23.98
2022-10-17T16:38:23.012Z,33.72
2022-10-17T16:40:55.378Z,25.23
2022-10-17T16:43:28.005Z,26.98
2022-10-17T16:46:04.295Z,23.10
2022-10-17T16:48:37.699Z,24.90
2022-10-17T16:51:12.427Z,24.98
2022-10-17T16:53:46.666Z,27.30
2022-10-17T16:56:21.837Z,25.30
2022-10-17T16:58:54.774Z,24.00
2022-10-17T17:01:29.659Z,27.50
2022-10-17T17:04:05.292Z,23.88
2022-10-17T17:06:38.106Z,27.60
2022-10-17T17:09:10.834Z,29.90
2022-10-17T17:11:43.702Z,26.38
2022-10-17T17:14:16.445Z,26.65
2022-10-17T17:16:49.185Z,41.20
2022-10-17T17:19:21.908Z,29.70
2022-10-17T17:21:54.883Z,26.85
2022-10-17T17:24:28.593Z,30.88
2022-10-17T17:27:01.383Z,30.58
2022-10-17T17:29:34.445Z,28.58
2022-10-17T17:32:08.846Z,33.97
2022-10-17T17:34:41.713Z,31.33
2022-10-17T17:37:14.547Z,32.35
2022-10-17T17:39:47.466Z,37.45
2022-10-17T17:42:20.450Z,37.28
2022-10-17T17:44:53.106Z,32.90
2022-10-17T17:47:29.966Z,31.20
2022-10-17T17:50:30.617Z,34.25
2022-10-17T17:53:06.618Z,39.47
2022-10-17T17:55:39.394Z,36.75
2022-10-17T17:58:13.495Z,35.10
2022-10-17T18:00:48.561Z,33.30
2022-10-17T18:03:21.540Z,33.85
2022-10-17T18:05:54.837Z,37.28
2022-10-17T18:08:27.775Z,37.70
2022-10-17T18:11:00.681Z,44.65
2022-10-17T18:13:34.593Z,38.17
2022-10-17T18:16:13.490Z,41.28
2022-10-17T18:18:46.213Z,38.58
2022-10-17T18:21:19.836Z,50.63
2022-10-17T18:23:53.227Z,48.58
2022-10-17T18:26:26.041Z,48.55
2022-10-17T18:28:59.244Z,47.80
2022-10-17T18:31:36.295Z,44.25
2022-10-17T18:34:09.891Z,36.80
2022-10-17T18:36:42.725Z,44.35
2022-10-17T18:39:15.434Z,40.85
2022-10-17T18:41:48.080Z,40.00
2022-10-17T18:44:20.856Z,42.42
2022-10-17T18:46:53.613Z,40.55
2022-10-17T18:49:26.578Z,43.13
2022-10-17T18:52:00.145Z,44.78
2022-10-17T18:54:35.171Z,41.38
2022-10-17T18:57:08.130Z,43.22
2022-10-17T18:59:41.227Z,39.47
2022-10-17T19:02:14.583Z,47.78
2022-10-17T19:07:25.075Z,45.97
2022-10-17T19:09:57.834Z,45.65
2022-10-17T19:12:30.540Z,39.83
2022-10-17T19:15:03.395Z,45.83
2022-10-17T19:17:36.172Z,44.30
2022-10-17T19:20:10.488Z,48.08
2022-10-17T19:22:44.145Z,46.27
2022-10-17T19:25:17.137Z,50.28
2022-10-17T19:27:50.987Z,59.28
2022-10-17T19:30:23.745Z,53.30
2022-10-17T19:32:56.494Z,50.40
2022-10-17T19:35:29.034Z,49.58
2022-10-17T19:38:01.594Z,63.67
2022-10-17T19:40:36.194Z,56.05
2022-10-17T19:43:08.956Z,50.90
2022-10-17T19:45:41.852Z,52.55
2022-10-17T19:48:21.494Z,53.58
2022-10-17T19:50:54.731Z,46.70
2022-10-17T19:53:29.760Z,50.30
2022-10-17T19:56:02.716Z,53.00
2022-10-17T19:58:44.776Z,49.65
2022-10-17T20:01:21.847Z,50.85
2022-10-17T20:03:55.731Z,50.78
2022-10-17T20:06:29.134Z,52.53
2022-10-17T20:09:02.167Z,47.97
2022-10-17T20:11:35.982Z,55.88
2022-10-17T20:14:08.880Z,50.50
2022-10-17T20:16:41.674Z,56.78
2022-10-17T20:19:15.683Z,50.70
2022-10-17T20:21:48.390Z,51.15
2022-10-17T20:24:21.209Z,57.72
2022-10-17T20:26:53.721Z,50.08
2022-10-17T20:29:28.727Z,49.70
2022-10-17T20:32:01.481Z,60.40
2022-10-17T20:34:35.895Z,58.63
2022-10-17T20:37:08.652Z,60.92
2022-10-17T20:39:42.991Z,55.33
2022-10-17T20:42:16.211Z,53.58
2022-10-17T20:44:48.978Z,53.47
2022-10-17T20:47:40.036Z,44.67
2022-10-17T20:50:15.030Z,49.08
2022-10-17T20:52:47.677Z,48.22
2022-10-17T20:55:20.301Z,45.15
2022-10-17T20:57:54.474Z,48.63
2022-10-17T21:00:27.248Z,51.60
2022-10-17T21:02:59.873Z,46.15
2022-10-17T21:05:32.556Z,46.70
2022-10-17T21:08:05.664Z,55.60
2022-10-17T21:10:38.328Z,50.15
2022-10-17T21:13:10.926Z,50.08
2022-10-17T21:15:43.636Z,53.88
2022-10-17T21:18:16.199Z,47.92
2022-10-17T21:20:48.765Z,55.05
2022-10-17T21:23:21.325Z,48.78
2022-10-17T21:25:53.902Z,50.55
2022-10-17T21:28:26.530Z,52.88
2022-10-17T21:31:19.358Z,59.03
2022-10-17T21:33:55.119Z,50.00
2022-10-17T21:36:28.673Z,49.58
2022-10-17T21:39:01.273Z,54.33
2022-10-17T21:41:34.169Z,52.13
2022-10-17T21:44:12.639Z,52.05
2022-10-17T21:46:46.083Z,51.83
2022-10-17T21:49:20.949Z,48.22
2022-10-17T21:51:53.844Z,54.08
2022-10-17T21:54:26.299Z,48.25
2022-10-17T21:56:58.883Z,49.72
2022-10-17T21:59:35.019Z,49.58
2022-10-17T22:02:07.548Z,50.28
2022-10-17T22:04:40.094Z,48.42
2022-10-17T22:07:12.707Z,50.08
2022-10-17T22:09:45.290Z,51.53
2022-10-17T22:12:18.016Z,49.72
2022-10-17T22:14:50.629Z,52.10
2022-10-17T22:17:23.429Z,45.42
2022-10-17T22:19:56.138Z,47.40
2022-10-17T22:22:28.844Z,49.65
2022-10-17T22:25:01.473Z,48.03
2022-10-17T22:27:34.189Z,44.75
2022-10-17T22:30:07.642Z,43.40
2022-10-17T22:32:40.270Z,47.42
2022-10-17T22:35:13.192Z,45.92
2022-10-17T22:37:45.747Z,45.20
2022-10-17T22:40:18.263Z,45.22
2022-10-17T22:42:50.782Z,46.83
2022-10-17T22:45:23.531Z,43.38
2022-10-17T22:47:56.686Z,47.88
2022-10-17T22:50:29.514Z,41.15
2022-10-17T22:53:02.277Z,40.70
2022-10-17T22:55:34.827Z,46.83
2022-10-17T22:58:07.349Z,43.08
2022-10-17T23:00:39.809Z,42.60
2022-10-17T23:03:12.379Z,51.33
2022-10-17T23:05:45.297Z,47.53
2022-10-17T23:08:18.275Z,44.50
2022-10-17T23:10:51.118Z,49.58
2022-10-17T23:13:23.902Z,43.25
2022-10-17T23:15:58.040Z,48.00
2022-10-17T23:21:08.571Z,45.65
2022-10-17T23:23:41.186Z,45.95
2022-10-17T23:26:14.905Z,46.17
2022-10-17T23:28:47.500Z,43.30
2022-10-17T23:31:22.044Z,46.92
2022-10-17T23:33:54.857Z,46.97
2022-10-17T23:36:27.506Z,40.40
2022-10-17T23:39:00.185Z,45.38
2022-10-17T23:41:32.913Z,42.75
2022-10-17T23:44:05.707Z,47.03
2022-10-17T23:46:38.603Z,43.90
2022-10-17T23:49:11.690Z,43.45
2022-10-17T23:51:44.145Z,44.72
2022-10-17T23:54:16.627Z,42.53
2022-10-17T23:56:49.260Z,41.92
2022-10-17T23:59:22.050Z,42.53
